Time,TemperatureF,DewpointF,PressureIn,WindDirection,WindDirectionDegrees,WindSpeedMPH,WindSpeedGustMPH,Humidity,HourlyPrecipIn,Conditions,Clouds,dailyrainin,SoftwareType,DateUTC
2013-08-05 00:00:00,52.7,47.7,30.07,SSW,208,0.0,0.0,83,0.00,,BKN070,0.00,VWS V14.01,2013-08-05 04:00:00,
2013-08-05 00:01:00,52.7,47.7,30.07,SSW,208,0.0,0.0,83,0.00,,BKN070,0.00,VWS V14.01,2013-08-05 04:01:00,
2013-08-05 00:06:00,52.7,47.7,30.07,SSW,208,0.0,0.0,83,0.00,,BKN070,0.00,VWS V14.01,2013-08-05 04:06:00,
2013-08-05 00:11:00,52.3,47.3,30.07,SSW,208,0.0,0.0,83,0.00,,BKN070,0.00,VWS V14.01,2013-08-05 04:11:00,
2013-08-05 00:16:00,52.3,47.3,30.07,SSW,208,0.0,0.0,83,0.00,,BKN070,0.00,VWS V14.01,2013-08-05 04:16:00,
2013-08-05 00:22:00,52.2,47.2,30.07,SSW,208,0.0,0.0,83,0.00,,BKN070,0.00,VWS V14.01,2013-08-05 04:22:00,
2013-08-05 00:27:00,52.2,47.2,30.07,SSW,208,0.0,0.0,83,0.00,,BKN070,0.00,VWS V14.01,2013-08-05 04:27:00,
2013-08-05 00:32:00,52.2,47.2,30.07,SSW,208,0.0,0.0,83,0.00,,BKN070,0.00,VWS V14.01,2013-08-05 04:32:00,
2013-08-05 00:37:00,52.2,47.2,30.07,SSW,208,0.0,0.0,83,0.00,,BKN070,0.00,VWS V14.01,2013-08-05 04:37:00,
2013-08-05 00:42:00,52.2,47.2,30.07,SSW,208,0.0,0.0,83,0.00,,FEW026,0.00,VWS V14.01,2013-08-05 04:42:00,
2013-08-05 00:46:00,51.8,47.1,30.07,SSW,208,0.0,0.0,84,0.00,,FEW026,0.00,VWS V14.01,2013-08-05 04:46:00,
2013-08-05 00:52:00,51.8,47.1,30.07,SSW,208,0.0,0.0,84,0.00,,FEW026,0.00,VWS V14.01,2013-08-05 04:52:00,
2013-08-05 00:57:00,51.6,47.0,30.07,SSW,208,0.0,0.0,84,0.00,,FEW026,0.00,VWS V14.01,2013-08-05 04:57:00,
2013-08-05 01:02:00,51.6,47.0,30.07,SSW,208,0.0,0.0,84,0.00,,FEW026,0.00,VWS V14.01,2013-08-05 05:02:00,
2013-08-05 01:07:00,51.4,46.8,30.07,SSW,208,0.0,0.0,84,0.00,,FEW026,0.00,VWS V14.01,2013-08-05 05:07:00,
2013-08-05 01:12:00,51.1,46.4,30.07,SSW,208,0.0,0.0,84,0.00,,FEW026,0.00,VWS V14.01,2013-08-05 05:12:00,
2013-08-05 01:17:00,51.1,46.4,30.07,SSW,208,0.0,0.0,84,0.00,,FEW026,0.00,VWS V14.01,2013-08-05 05:17:00,
2013-08-05 01:22:00,50.7,46.1,30.07,SSW,208,0.0,0.0,84,0.00,,FEW026,0.00,VWS V14.01,2013-08-05 05:22:00,
2013-08-05 01:27:00,50.7,46.1,30.07,SSW,208,0.0,0.0,84,0.00,,FEW026,0.00,VWS V14.01,2013-08-05 05:27:00,
2013-08-05 01:32:00,50.4,45.7,30.07,SSW,208,0.0,0.0,84,0.00,,FEW026,0.00,VWS V14.01,2013-08-05 05:32:00,
2013-08-05 01:37:00,50.4,45.7,30.07,SSW,208,0.0,0.0,84,0.00,,FEW026,0.00,VWS V14.01,2013-08-05 05:37:00,
2013-08-05 01:42:00,50.0,45.7,30.07,SSW,208,0.0,0.0,85,0.00,,BKN050,0.00,VWS V14.01,2013-08-05 05:42:00,
2013-08-05 01:47:00,50.0,45.7,30.07,SSW,208,0.0,0.0,85,0.00,,BKN050,0.00,VWS V14.01,2013-08-05 05:47:00,
2013-08-05 01:52:00,50.0,45.7,30.07,SSW,208,0.0,0.0,85,0.00,,BKN050,0.00,VWS V14.01,2013-08-05 05:52:00,
2013-08-05 01:57:00,49.5,45.2,30.07,SSW,208,0.0,0.0,85,0.00,,BKN050,0.00,VWS V14.01,2013-08-05 05:57:00,
2013-08-05 02:02:00,49.3,45.0,30.07,SSW,208,0.0,0.0,85,0.00,,BKN050,0.00,VWS V14.01,2013-08-05 06:02:00,
2013-08-05 02:07:00,48.9,44.6,30.07,SSW,208,0.0,0.0,85,0.00,,BKN050,0.00,VWS V14.01,2013-08-05 06:07:00,
2013-08-05 02:12:00,48.7,44.4,30.07,SSW,208,0.0,0.0,85,0.00,,BKN050,0.00,VWS V14.01,2013-08-05 06:12:00,
2013-08-05 02:17:00,48.6,44.3,30.07,SSW,208,0.0,0.0,85,0.00,,BKN050,0.00,VWS V14.01,2013-08-05 06:17:00,
2013-08-05 02:22:00,48.4,44.1,30.07,SSW,208,0.0,0.0,85,0.00,,BKN050,0.00,VWS V14.01,2013-08-05 06:22:00,
2013-08-05 02:27:00,48.4,44.1,30.07,SSW,208,0.0,0.0,85,0.00,,BKN050,0.00,VWS V14.01,2013-08-05 06:27:00,
2013-08-05 02:32:00,47.8,43.9,30.07,SSW,208,0.0,0.0,86,0.00,,BKN050,0.00,VWS V14.01,2013-08-05 06:32:00,
2013-08-05 02:37:00,47.8,43.9,30.07,SSW,208,0.0,0.0,86,0.00,,BKN050,0.00,VWS V14.01,2013-08-05 06:37:00,
2013-08-05 02:42:00,47.5,43.5,30.07,SSW,208,0.0,0.0,86,0.00,,CLR,0.00,VWS V14.01,2013-08-05 06:42:00,
2013-08-05 02:47:00,47.1,43.2,30.07,SSW,208,0.0,0.0,86,0.00,,CLR,0.00,VWS V14.01,2013-08-05 06:47:00,
2013-08-05 02:52:00,46.9,43.0,30.07,SSW,208,0.0,0.0,86,0.00,,,0.00,VWS V14.01,2013-08-05 06:52:00,
2013-08-05 02:57:00,46.8,42.8,30.07,SSW,208,0.0,0.0,86,0.00,,,0.00,VWS V14.01,2013-08-05 06:57:00,
2013-08-05 03:02:00,46.8,42.8,30.07,SSW,208,0.0,0.0,86,0.00,,,0.00,VWS V14.01,2013-08-05 07:02:00,
2013-08-05 03:07:00,46.4,42.5,30.07,SSW,208,0.0,0.0,86,0.00,,,0.00,VWS V14.01,2013-08-05 07:07:00,
2013-08-05 03:12:00,46.0,42.1,30.07,SSW,208,0.0,0.0,86,0.00,,,0.39,VWS V14.01,2013-08-05 07:12:00,
2013-08-05 03:17:00,45.9,41.9,30.07,SSW,208,0.0,0.0,86,0.00,,,0.00,VWS V14.01,2013-08-05 07:17:00,
2013-08-05 03:22:00,45.7,42.0,30.07,SSW,208,0.0,0.0,87,0.00,,,0.00,VWS V14.01,2013-08-05 07:22:00,
2013-08-05 03:27:00,45.7,42.0,30.07,SSW,208,0.0,0.0,87,0.00,,,0.00,VWS V14.01,2013-08-05 07:27:00,
2013-08-05 03:32:00,45.5,41.9,30.07,SSW,208,0.0,0.0,87,0.00,,,0.00,VWS V14.01,2013-08-05 07:32:00,
2013-08-05 03:37:00,45.1,41.5,30.07,SSW,208,0.0,0.0,87,0.00,,,0.00,VWS V14.01,2013-08-05 07:37:00,
2013-08-05 03:42:00,45.1,41.5,30.07,SSW,208,0.0,0.0,87,0.00,,SCT001,0.00,VWS V14.01,2013-08-05 07:42:00,
2013-08-05 03:47:00,44.8,41.2,30.07,SSW,208,0.0,0.0,87,0.00,,SCT001,0.00,VWS V14.01,2013-08-05 07:47:00,
2013-08-05 03:52:00,44.8,41.2,30.07,SSW,208,0.0,0.0,87,0.00,,,0.00,VWS V14.01,2013-08-05 07:52:00,
2013-08-05 03:57:00,44.6,41.0,30.07,SSW,208,0.0,0.0,87,0.00,,,0.00,VWS V14.01,2013-08-05 07:57:00,
2013-08-05 04:02:00,44.6,41.0,30.07,SSW,208,0.0,0.0,87,0.00,,,0.00,VWS V14.01,2013-08-05 08:02:00,
2013-08-05 04:08:00,44.2,40.6,30.07,SSW,208,0.0,0.0,87,0.00,,,0.00,VWS V14.01,2013-08-05 08:08:00,
2013-08-05 04:13:00,44.2,40.6,30.07,SSW,208,0.0,0.0,87,0.00,,,0.00,VWS V14.01,2013-08-05 08:13:00,
2013-08-05 04:17:00,44.1,40.5,30.07,SSW,208,0.0,0.0,87,0.00,,,0.00,VWS V14.01,2013-08-05 08:17:00,
2013-08-05 04:23:00,43.7,40.1,30.07,SSW,208,0.0,0.0,87,0.00,,,0.00,VWS V14.01,2013-08-05 08:23:00,
2013-08-05 04:28:00,43.5,39.9,30.07,SSW,208,0.0,0.0,87,0.00,,,0.00,VWS V14.01,2013-08-05 08:28:00,
2013-08-05 04:33:00,43.5,39.9,30.07,SSW,208,0.0,0.0,87,0.00,,,0.00,VWS V14.01,2013-08-05 08:33:00,
2013-08-05 04:38:00,43.5,39.9,30.07,SSW,208,0.0,0.0,87,0.00,,,0.00,VWS V14.01,2013-08-05 08:38:00,
2013-08-05 04:43:00,43.2,39.6,30.07,SSW,208,0.0,0.0,87,0.00,,,0.00,VWS V14.01,2013-08-05 08:43:00,
2013-08-05 04:48:00,43.0,39.4,30.07,SSW,208,0.0,0.0,87,0.00,,,0.00,VWS V14.01,2013-08-05 08:48:00,
2013-08-05 04:53:00,43.0,39.4,30.07,SSW,208,0.0,0.0,87,0.00,,,0.00,VWS V14.01,2013-08-05 08:53:00,
2013-08-05 04:58:00,42.8,39.5,30.07,SSW,208,0.0,0.0,88,0.00,,,0.00,VWS V14.01,2013-08-05 08:58:00,
2013-08-05 05:03:00,42.8,39.5,30.07,SSW,208,0.0,0.0,88,0.00,,,0.00,VWS V14.01,2013-08-05 09:03:00,
2013-08-05 05:08:00,42.8,39.5,30.07,SSW,208,0.0,0.0,88,0.00,,,0.00,VWS V14.01,2013-08-05 09:08:00,
2013-08-05 05:13:00,42.4,39.1,30.07,SSW,208,0.0,0.0,88,0.00,,,0.00,VWS V14.01,2013-08-05 09:13:00,
2013-08-05 05:18:00,42.4,39.1,30.07,SSW,208,0.0,0.0,88,0.00,,,0.00,VWS V14.01,2013-08-05 09:18:00,
2013-08-05 05:23:00,42.3,39.0,30.07,SSW,208,0.0,0.0,88,0.00,,,0.00,VWS V14.01,2013-08-05 09:23:00,
2013-08-05 05:29:00,42.3,39.0,30.07,SSW,208,0.0,0.0,88,0.00,,,0.00,VWS V14.01,2013-08-05 09:29:00,
2013-08-05 05:33:00,42.3,39.0,30.07,SSW,208,0.0,0.0,88,0.00,,,0.00,VWS V14.01,2013-08-05 09:33:00,
2013-08-05 05:38:00,42.1,39.1,30.07,SSW,208,0.0,0.0,89,0.00,,,0.00,VWS V14.01,2013-08-05 09:38:00,
2013-08-05 05:44:00,42.1,39.1,30.10,SSW,208,0.0,0.0,89,0.00,,,0.00,VWS V14.01,2013-08-05 09:44:00,
2013-08-05 05:49:00,42.1,39.1,30.10,SSW,208,0.0,0.0,89,0.00,,,0.00,VWS V14.01,2013-08-05 09:49:00,
2013-08-05 05:54:00,42.1,39.1,30.10,SSW,208,0.0,0.0,89,0.00,,,0.00,VWS V14.01,2013-08-05 09:54:00,
2013-08-05 05:59:00,41.9,38.9,30.07,SSW,208,0.0,0.0,89,0.00,,,0.00,VWS V14.01,2013-08-05 09:59:00,
2013-08-05 06:04:00,41.9,38.9,30.07,SSW,208,0.0,0.0,89,0.00,,,0.00,VWS V14.01,2013-08-05 10:04:00,
2013-08-05 06:10:00,41.7,38.7,30.07,SSW,208,0.0,0.0,89,0.00,,,0.00,VWS V14.01,2013-08-05 10:10:00,
2013-08-05 06:15:00,41.7,38.7,30.10,SSW,208,0.0,0.0,89,0.00,,,0.00,VWS V14.01,2013-08-05 10:15:00,
2013-08-05 06:20:00,41.7,38.7,30.10,SSW,208,0.0,0.0,89,0.00,,,0.00,VWS V14.01,2013-08-05 10:20:00,
2013-08-05 06:25:00,41.9,38.9,30.10,SSW,208,0.0,0.0,89,0.00,,,0.00,VWS V14.01,2013-08-05 10:25:00,
2013-08-05 06:30:00,41.9,38.9,30.10,SSW,208,0.0,0.0,89,0.00,,,0.00,VWS V14.01,2013-08-05 10:30:00,
2013-08-05 06:35:00,41.9,39.2,30.10,SSW,208,0.0,0.0,90,0.00,,,0.00,VWS V14.01,2013-08-05 10:35:00,
2013-08-05 06:40:00,42.1,39.4,30.10,SSW,208,0.0,0.0,90,0.00,,,0.00,VWS V14.01,2013-08-05 10:40:00,
2013-08-05 06:45:00,42.4,39.7,30.10,SSW,208,0.0,0.0,90,0.00,,,0.00,VWS V14.01,2013-08-05 10:45:00,
2013-08-05 06:50:00,42.6,39.9,30.10,SSW,208,0.0,0.0,90,0.00,,,0.00,VWS V14.01,2013-08-05 10:50:00,
2013-08-05 06:55:00,42.6,39.9,30.10,SSW,208,0.0,0.0,90,0.00,,,0.00,VWS V14.01,2013-08-05 10:55:00,
2013-08-05 07:00:00,43.2,40.4,30.10,SSW,208,0.0,0.0,90,0.00,,,0.00,VWS V14.01,2013-08-05 11:00:00,
2013-08-05 07:05:00,44.1,41.6,30.10,SSW,208,0.0,0.0,91,0.00,,,0.00,VWS V14.01,2013-08-05 11:05:00,
2013-08-05 07:10:00,44.6,42.1,30.10,SSW,208,0.0,0.0,91,0.00,,,0.00,VWS V14.01,2013-08-05 11:10:00,
2013-08-05 07:15:00,44.8,42.3,30.10,SSW,208,0.0,0.0,91,0.00,,,0.00,VWS V14.01,2013-08-05 11:15:00,
2013-08-05 07:21:00,44.8,42.3,30.10,SSW,208,0.0,0.0,91,0.00,,,0.00,VWS V14.01,2013-08-05 11:21:00,
2013-08-05 07:25:00,46.2,43.7,30.10,SSW,208,0.0,0.0,91,0.00,,,0.00,VWS V14.01,2013-08-05 11:25:00,
2013-08-05 07:30:00,46.2,43.7,30.13,SSW,208,0.0,0.0,91,0.00,,,0.00,VWS V14.01,2013-08-05 11:30:00,
2013-08-05 07:35:00,48.2,45.7,30.13,SSW,208,0.0,0.0,91,0.00,,,0.00,VWS V14.01,2013-08-05 11:35:00,
2013-08-05 07:41:00,49.5,47.2,30.13,SSW,208,0.0,0.0,92,0.00,,,0.00,VWS V14.01,2013-08-05 11:41:00,
2013-08-05 07:45:00,50.0,47.5,30.13,SSW,208,0.0,0.0,91,0.00,,,0.00,VWS V14.01,2013-08-05 11:45:00,
2013-08-05 07:51:00,51.4,49.2,30.13,SSW,208,0.0,0.0,92,0.00,,SCT001,0.00,VWS V14.01,2013-08-05 11:51:00,
2013-08-05 07:56:00,52.5,50.0,30.13,SSW,208,0.0,0.0,91,0.00,,SCT001,0.00,VWS V14.01,2013-08-05 11:56:00,
2013-08-05 08:02:00,53.6,51.0,30.13,SSW,208,0.0,0.0,91,0.00,,SCT001,0.00,VWS V14.01,2013-08-05 12:02:00,
2013-08-05 08:06:00,54.7,52.1,30.13,SSW,208,0.0,0.0,91,0.00,,SCT001,0.00,VWS V14.01,2013-08-05 12:06:00,
2013-08-05 08:12:00,55.6,53.0,30.13,SSE,161,0.0,0.0,91,0.00,,SCT001,0.00,VWS V14.01,2013-08-05 12:12:00,
2013-08-05 08:17:00,56.3,53.7,30.13,SSE,161,0.0,0.0,91,0.00,,SCT001,0.00,VWS V14.01,2013-08-05 12:17:00,
2013-08-05 08:22:00,57.2,54.6,30.13,SSE,161,0.0,0.0,91,0.00,,SCT001,0.00,VWS V14.01,2013-08-05 12:22:00,
2013-08-05 08:27:00,57.6,54.7,30.13,SSE,161,0.0,0.0,90,0.00,,SCT001,0.00,VWS V14.01,2013-08-05 12:27:00,
2013-08-05 08:32:00,58.3,55.4,30.13,SSE,156,0.0,0.0,90,0.00,,SCT001,0.00,VWS V14.01,2013-08-05 12:32:00,
2013-08-05 08:37:00,58.3,55.4,30.13,SSE,156,0.0,0.0,90,0.00,,SCT001,0.00,VWS V14.01,2013-08-05 12:37:00,
2013-08-05 08:42:00,58.8,55.6,30.13,South,172,0.0,0.0,89,0.00,,SCT001,0.00,VWS V14.01,2013-08-05 12:42:00,
2013-08-05 08:47:00,58.8,55.3,30.13,South,172,0.0,0.0,88,0.00,,SCT001,0.00,VWS V14.01,2013-08-05 12:47:00,
2013-08-05 08:52:00,58.5,54.3,30.13,South,172,0.0,0.0,86,0.00,,CLR,0.00,VWS V14.01,2013-08-05 12:52:00,
2013-08-05 08:57:00,57.7,53.0,30.13,South,172,0.0,0.0,84,0.00,,CLR,0.00,VWS V14.01,2013-08-05 12:57:00,
2013-08-05 09:02:00,57.6,52.4,30.13,South,172,0.0,0.0,83,0.00,,CLR,0.00,VWS V14.01,2013-08-05 13:02:00,
2013-08-05 09:07:00,57.6,52.1,30.13,South,172,0.0,0.0,82,0.00,,CLR,0.00,VWS V14.01,2013-08-05 13:07:00,
2013-08-05 09:12:00,57.6,52.1,30.13,South,172,0.0,0.0,82,0.00,,CLR,0.00,VWS V14.01,2013-08-05 13:12:00,
2013-08-05 09:18:00,57.2,49.7,30.13,South,172,0.0,0.0,76,0.00,,CLR,0.00,VWS V14.01,2013-08-05 13:18:00,
2013-08-05 09:22:00,57.2,49.7,30.13,South,172,0.0,0.0,76,0.00,,CLR,0.00,VWS V14.01,2013-08-05 13:22:00,
2013-08-05 09:27:00,57.2,49.4,30.13,South,172,0.0,0.0,75,0.00,,CLR,0.00,VWS V14.01,2013-08-05 13:27:00,
2013-08-05 09:33:00,57.4,49.2,30.13,South,172,0.0,0.0,74,0.00,,CLR,0.00,VWS V14.01,2013-08-05 13:33:00,
2013-08-05 09:38:00,57.4,49.2,30.13,South,172,0.0,0.0,74,0.00,,CLR,0.00,VWS V14.01,2013-08-05 13:38:00,
2013-08-05 09:42:00,57.9,37.8,30.13,South,172,0.0,0.0,47,0.00,,CLR,0.00,VWS V14.01,2013-08-05 13:42:00,
2013-08-05 09:47:00,58.3,39.7,30.13,South,172,0.0,0.0,50,0.00,,CLR,0.00,VWS V14.01,2013-08-05 13:47:00,
2013-08-05 09:53:00,58.5,40.4,30.13,South,172,0.0,0.0,51,0.00,,CLR,0.00,VWS V14.01,2013-08-05 13:53:00,
2013-08-05 09:57:00,59.0,38.3,30.13,South,172,0.0,0.0,46,0.00,,CLR,0.00,VWS V14.01,2013-08-05 13:57:00,
2013-08-05 10:03:00,59.0,37.1,30.13,South,172,0.0,0.0,44,0.00,,CLR,0.00,VWS V14.01,2013-08-05 14:03:00,
2013-08-05 10:07:00,59.4,35.1,30.13,South,172,0.0,0.0,40,0.00,,CLR,0.00,VWS V14.01,2013-08-05 14:07:00,
2013-08-05 10:13:00,59.4,35.1,30.13,South,172,0.0,0.0,40,0.00,,CLR,0.00,VWS V14.01,2013-08-05 14:13:00,
2013-08-05 10:18:00,59.9,34.9,30.13,South,172,0.0,0.0,39,0.00,,CLR,0.00,VWS V14.01,2013-08-05 14:18:00,
2013-08-05 10:23:00,59.9,33.6,30.13,South,172,0.0,0.0,37,0.00,,CLR,0.00,VWS V14.01,2013-08-05 14:23:00,
2013-08-05 10:28:00,60.3,33.9,30.13,South,172,0.0,0.0,37,0.00,,CLR,0.00,VWS V14.01,2013-08-05 14:28:00,
2013-08-05 10:33:00,60.6,32.8,30.13,South,172,0.0,0.0,35,0.00,,CLR,0.00,VWS V14.01,2013-08-05 14:33:00,
2013-08-05 10:38:00,60.8,33.0,30.13,South,172,0.0,0.0,35,0.00,,CLR,0.00,VWS V14.01,2013-08-05 14:38:00,
2013-08-05 10:43:00,61.3,33.5,30.13,South,172,0.0,0.0,35,0.00,,CLR,0.00,VWS V14.01,2013-08-05 14:43:00,
2013-08-05 10:48:00,61.7,33.1,30.13,South,172,0.0,0.0,34,0.00,,CLR,0.00,VWS V14.01,2013-08-05 14:48:00,
2013-08-05 10:53:00,62.1,34.1,30.13,South,172,0.0,0.0,35,0.00,,CLR,0.00,VWS V14.01,2013-08-05 14:53:00,
2013-08-05 10:59:00,62.8,34.0,30.13,South,172,0.0,0.0,34,0.00,,CLR,0.00,VWS V14.01,2013-08-05 14:59:00,
2013-08-05 11:04:00,63.0,34.2,30.13,South,172,0.0,0.0,34,0.00,,CLR,0.00,VWS V14.01,2013-08-05 15:04:00,
2013-08-05 11:09:00,63.5,34.7,30.13,South,172,0.0,0.0,34,0.00,,CLR,0.00,VWS V14.01,2013-08-05 15:09:00,
2013-08-05 11:13:00,63.5,34.7,30.13,South,172,0.0,0.0,34,0.00,,CLR,0.00,VWS V14.01,2013-08-05 15:13:00,
2013-08-05 11:19:00,63.7,34.1,30.13,South,172,0.0,0.0,33,0.00,,CLR,0.00,VWS V14.01,2013-08-05 15:19:00,
2013-08-05 11:24:00,63.7,34.8,30.13,South,172,0.0,0.0,34,0.00,,CLR,0.00,VWS V14.01,2013-08-05 15:24:00,
2013-08-05 11:29:00,64.2,35.3,30.13,South,172,0.0,0.0,34,0.00,,CLR,0.00,VWS V14.01,2013-08-05 15:29:00,
2013-08-05 11:34:00,63.9,34.2,30.13,South,172,0.0,0.0,33,0.00,,CLR,0.00,VWS V14.01,2013-08-05 15:34:00,
2013-08-05 11:39:00,63.9,34.2,30.13,South,172,0.0,0.0,33,0.00,,CLR,0.00,VWS V14.01,2013-08-05 15:39:00,
2013-08-05 11:44:00,63.9,34.2,30.13,South,172,0.0,0.0,33,0.00,,CLR,0.00,VWS V14.01,2013-08-05 15:44:00,
2013-08-05 11:49:00,64.2,34.5,30.13,South,172,0.0,0.0,33,0.00,,CLR,0.00,VWS V14.01,2013-08-05 15:49:00,
2013-08-05 11:54:00,63.9,34.2,30.13,South,172,0.0,0.0,33,0.00,,CLR,0.00,VWS V14.01,2013-08-05 15:54:00,
2013-08-05 11:59:00,64.2,34.5,30.13,South,172,0.0,0.0,33,0.00,,CLR,0.00,VWS V14.01,2013-08-05 15:59:00,
2013-08-05 12:04:00,64.2,34.5,30.13,South,172,0.0,0.0,33,0.00,,CLR,0.00,VWS V14.01,2013-08-05 16:04:00,
2013-08-05 12:10:00,64.8,35.0,30.13,South,172,0.0,0.0,33,0.00,,CLR,0.00,VWS V14.01,2013-08-05 16:10:00,
2013-08-05 12:15:00,65.1,34.6,30.13,West,276,3.1,3.1,32,0.00,,CLR,0.00,VWS V14.01,2013-08-05 16:15:00,
2013-08-05 12:20:00,65.3,35.5,30.13,West,276,3.1,3.1,33,0.00,,CLR,0.00,VWS V14.01,2013-08-05 16:20:00,
2013-08-05 12:25:00,65.1,35.3,30.13,West,276,3.1,3.1,33,0.00,,CLR,0.00,VWS V14.01,2013-08-05 16:25:00,
2013-08-05 12:29:00,65.3,33.9,30.13,West,276,3.1,3.1,31,0.00,,CLR,0.00,VWS V14.01,2013-08-05 16:29:00,
2013-08-05 12:35:00,65.7,35.8,30.13,South,171,2.7,3.1,33,0.00,,CLR,0.00,VWS V14.01,2013-08-05 16:35:00,
2013-08-05 12:39:00,65.8,36.0,30.13,SW,234,4.9,4.9,33,0.00,,CLR,0.00,VWS V14.01,2013-08-05 16:39:00,
2013-08-05 12:44:00,66.2,36.3,30.13,SW,234,4.9,4.9,33,0.00,,CLR,0.00,VWS V14.01,2013-08-05 16:44:00,
2013-08-05 12:50:00,66.4,35.7,30.13,NW,308,4.0,4.0,32,0.00,,CLR,0.00,VWS V14.01,2013-08-05 16:50:00,
2013-08-05 12:55:00,66.4,34.9,30.13,NW,308,4.0,4.0,31,0.00,,CLR,0.00,VWS V14.01,2013-08-05 16:55:00,
2013-08-05 13:00:00,66.0,35.3,30.13,NW,308,4.0,4.0,32,0.00,,CLR,0.00,VWS V14.01,2013-08-05 17:00:00,
2013-08-05 13:05:00,65.8,35.2,30.13,NW,308,4.0,4.0,32,0.00,,CLR,0.00,VWS V14.01,2013-08-05 17:05:00,
2013-08-05 13:10:00,65.8,34.4,30.13,NW,308,4.0,4.0,31,0.00,,CLR,0.00,VWS V14.01,2013-08-05 17:10:00,
2013-08-05 13:16:00,66.0,34.5,30.13,NW,308,4.0,4.0,31,0.00,,CLR,0.00,VWS V14.01,2013-08-05 17:16:00,
2013-08-05 13:21:00,65.7,34.2,30.13,NW,308,4.0,4.0,31,0.00,,CLR,0.00,VWS V14.01,2013-08-05 17:21:00,
2013-08-05 13:26:00,66.2,35.5,30.13,NW,308,4.0,4.0,32,0.00,,CLR,0.00,VWS V14.01,2013-08-05 17:26:00,
2013-08-05 13:31:00,66.2,34.7,30.10,NW,308,4.0,4.0,31,0.00,,CLR,0.00,VWS V14.01,2013-08-05 17:31:00,
2013-08-05 13:36:00,66.2,34.7,30.10,NW,308,4.0,4.0,31,0.00,,CLR,0.00,VWS V14.01,2013-08-05 17:36:00,
2013-08-05 13:41:00,66.9,36.1,30.10,NW,308,4.0,4.0,32,0.00,,CLR,0.00,VWS V14.01,2013-08-05 17:41:00,
2013-08-05 13:47:00,66.9,36.1,30.10,NW,308,4.0,4.0,32,0.00,,CLR,0.00,VWS V14.01,2013-08-05 17:47:00,
2013-08-05 13:52:00,67.3,36.4,30.10,NW,308,4.0,4.0,32,0.00,,CLR,0.00,VWS V14.01,2013-08-05 17:52:00,
2013-08-05 13:57:00,67.3,36.4,30.10,NW,308,4.0,4.0,32,0.00,,CLR,0.00,VWS V14.01,2013-08-05 17:57:00,
2013-08-05 14:02:00,67.1,35.5,30.10,NW,308,4.0,4.0,31,0.00,,CLR,0.00,VWS V14.01,2013-08-05 18:02:00,
2013-08-05 14:07:00,66.9,35.3,30.10,NW,308,4.0,4.0,31,0.00,,CLR,0.00,VWS V14.01,2013-08-05 18:07:00,
2013-08-05 14:12:00,66.9,35.3,30.10,NW,308,4.0,4.0,31,0.00,,CLR,0.00,VWS V14.01,2013-08-05 18:12:00,
2013-08-05 14:17:00,66.6,35.0,30.10,NW,308,4.0,4.0,31,0.00,,CLR,0.00,VWS V14.01,2013-08-05 18:17:00,
2013-08-05 14:22:00,66.6,35.0,30.10,NW,308,4.0,4.0,31,0.00,,CLR,0.00,VWS V14.01,2013-08-05 18:22:00,
2013-08-05 14:27:00,66.9,35.3,30.10,NW,308,4.0,4.0,31,0.00,,CLR,0.00,VWS V14.01,2013-08-05 18:27:00,
2013-08-05 14:32:00,67.5,36.6,30.10,NW,308,4.0,4.0,32,0.00,,CLR,0.00,VWS V14.01,2013-08-05 18:32:00,
2013-08-05 14:38:00,67.5,36.6,30.10,NW,308,4.0,4.0,32,0.00,,CLR,0.00,VWS V14.01,2013-08-05 18:38:00,
2013-08-05 14:43:00,68.0,35.4,30.10,NW,308,4.0,4.0,30,0.00,,CLR,0.00,VWS V14.01,2013-08-05 18:43:00,
2013-08-05 14:48:00,68.0,35.4,30.10,NW,308,4.0,4.0,30,0.00,,CLR,0.00,VWS V14.01,2013-08-05 18:48:00,
2013-08-05 14:53:00,68.2,35.6,30.10,NW,308,4.0,4.0,30,0.00,,CLR,0.00,VWS V14.01,2013-08-05 18:53:00,
2013-08-05 14:58:00,68.2,35.6,30.10,NW,308,4.0,4.0,30,0.00,,CLR,0.00,VWS V14.01,2013-08-05 18:58:00,
2013-08-05 15:03:00,67.6,36.0,30.10,NW,308,4.0,4.0,31,0.00,,CLR,0.00,VWS V14.01,2013-08-05 19:03:00,
2013-08-05 15:08:00,67.6,36.0,30.10,NW,308,4.0,4.0,31,0.00,,CLR,0.00,VWS V14.01,2013-08-05 19:08:00,
2013-08-05 15:13:00,68.0,36.3,30.10,NW,308,4.0,4.0,31,0.00,,CLR,0.00,VWS V14.01,2013-08-05 19:13:00,
2013-08-05 15:18:00,67.8,36.1,30.10,NW,308,4.0,4.0,31,0.00,,CLR,0.00,VWS V14.01,2013-08-05 19:18:00,
2013-08-05 15:23:00,67.8,36.1,30.10,NW,308,4.0,4.0,31,0.00,,CLR,0.00,VWS V14.01,2013-08-05 19:23:00,
2013-08-05 15:28:00,67.6,36.0,30.10,NW,308,4.0,4.0,31,0.00,,CLR,0.00,VWS V14.01,2013-08-05 19:28:00,
2013-08-05 15:34:00,67.6,36.0,30.10,NW,308,4.0,4.0,31,0.00,,CLR,0.00,VWS V14.01,2013-08-05 19:34:00,
2013-08-05 15:39:00,67.6,36.0,30.10,NW,308,4.0,4.0,31,0.00,,CLR,0.00,VWS V14.01,2013-08-05 19:39:00,
2013-08-05 15:44:00,67.6,36.8,30.10,NW,308,4.0,4.0,32,0.00,,FEW055,0.00,VWS V14.01,2013-08-05 19:44:00,
2013-08-05 15:49:00,67.8,36.1,30.10,WNW,293,2.7,4.0,31,0.00,,FEW055,0.00,VWS V14.01,2013-08-05 19:49:00,
2013-08-05 15:54:00,67.5,35.8,30.10,WNW,293,2.7,2.7,31,0.00,,FEW055,0.00,VWS V14.01,2013-08-05 19:54:00,
2013-08-05 15:59:00,67.5,35.8,30.10,NNW,335,2.7,2.7,31,0.00,,FEW055,0.00,VWS V14.01,2013-08-05 19:59:00,
2013-08-05 16:04:00,67.5,36.6,30.10,NNW,338,8.1,8.1,32,0.00,,FEW055,0.00,VWS V14.01,2013-08-05 20:04:00,
2013-08-05 16:09:00,67.1,35.5,30.10,SSW,205,5.4,8.1,31,0.00,,FEW055,0.00,VWS V14.01,2013-08-05 20:09:00,
2013-08-05 16:14:00,66.9,36.1,30.10,NNW,336,3.1,5.4,32,0.00,,FEW055,0.00,VWS V14.01,2013-08-05 20:14:00,
2013-08-05 16:19:00,66.6,35.8,30.10,NNW,336,3.1,5.4,32,0.00,,FEW055,0.00,VWS V14.01,2013-08-05 20:19:00,
2013-08-05 16:24:00,66.4,35.7,30.10,WSW,240,3.6,3.6,32,0.00,,FEW055,0.00,VWS V14.01,2013-08-05 20:24:00,
2013-08-05 16:29:00,66.2,35.5,30.10,NNE,12,2.7,3.6,32,0.00,,FEW055,0.00,VWS V14.01,2013-08-05 20:29:00,
2013-08-05 16:35:00,66.2,36.3,30.10,NNE,14,6.3,6.3,33,0.00,,FEW055,0.00,VWS V14.01,2013-08-05 20:35:00,
2013-08-05 16:40:00,66.0,36.1,30.10,NNE,14,6.3,6.3,33,0.00,,FEW055,0.00,VWS V14.01,2013-08-05 20:40:00,
2013-08-05 16:45:00,65.8,36.0,30.10,NNE,14,2.7,6.3,33,0.00,,FEW060,0.00,VWS V14.01,2013-08-05 20:45:00,
2013-08-05 16:50:00,65.8,36.0,30.10,NNW,341,0.0,6.3,33,0.00,,FEW060,0.00,VWS V14.01,2013-08-05 20:50:00,
2013-08-05 16:55:00,65.3,35.5,30.10,NNW,341,0.0,0.0,33,0.00,,FEW060,0.00,VWS V14.01,2013-08-05 20:55:00,
2013-08-05 17:00:00,65.3,35.5,30.10,West,269,3.1,3.1,33,0.00,,FEW060,0.00,VWS V14.01,2013-08-05 21:00:00,
2013-08-05 17:05:00,65.3,35.5,30.10,West,269,3.1,3.1,33,0.00,,FEW060,0.00,VWS V14.01,2013-08-05 21:05:00,
2013-08-05 17:10:00,65.3,35.5,30.10,NNW,333,2.7,2.7,33,0.00,,FEW060,0.00,VWS V14.01,2013-08-05 21:10:00,
2013-08-05 17:15:00,65.3,35.5,30.10,NNW,333,2.7,2.7,33,0.00,,FEW060,0.00,VWS V14.01,2013-08-05 21:15:00,
2013-08-05 17:20:00,65.5,35.6,30.10,South,185,2.7,2.7,33,0.00,,FEW060,0.00,VWS V14.01,2013-08-05 21:20:00,
2013-08-05 17:25:00,65.5,35.6,30.10,North,0,4.0,6.3,33,0.00,,FEW060,0.00,VWS V14.01,2013-08-05 21:25:00,
2013-08-05 17:31:00,65.5,35.6,30.10,North,0,4.0,4.0,33,0.00,,FEW060,0.00,VWS V14.01,2013-08-05 21:31:00,
2013-08-05 17:36:00,65.5,35.6,30.10,NNW,332,2.7,4.0,33,0.00,,FEW060,0.00,VWS V14.01,2013-08-05 21:36:00,
2013-08-05 17:41:00,65.5,35.6,30.10,SW,221,3.1,3.1,33,0.00,,FEW055,0.00,VWS V14.01,2013-08-05 21:41:00,
2013-08-05 17:47:00,65.5,35.6,30.10,WSW,240,2.7,3.1,33,0.00,,FEW055,0.00,VWS V14.01,2013-08-05 21:47:00,
2013-08-05 17:52:00,65.1,36.1,30.10,WSW,240,2.7,2.7,34,0.00,,FEW055,0.00,VWS V14.01,2013-08-05 21:52:00,
2013-08-05 17:57:00,65.1,36.1,30.10,WSW,240,2.7,2.7,34,0.00,,FEW055,0.00,VWS V14.01,2013-08-05 21:57:00,
2013-08-05 18:02:00,65.1,36.1,30.10,North,357,0.0,2.7,34,0.00,,FEW055,0.00,VWS V14.01,2013-08-05 22:02:00,
2013-08-05 18:07:00,65.1,36.1,30.10,North,349,4.0,4.0,34,0.00,,FEW055,0.00,VWS V14.01,2013-08-05 22:07:00,
2013-08-05 18:12:00,66.0,36.9,30.10,North,353,2.2,2.2,34,0.00,,FEW055,0.00,VWS V14.01,2013-08-05 22:12:00,
2013-08-05 18:17:00,66.0,36.9,30.10,North,353,0.0,2.2,34,0.00,,FEW055,0.00,VWS V14.01,2013-08-05 22:17:00,
2013-08-05 18:22:00,66.0,36.9,30.10,North,353,0.0,0.0,34,0.00,,FEW055,0.00,VWS V14.01,2013-08-05 22:22:00,
2013-08-05 18:27:00,65.3,36.2,30.10,NNW,335,2.7,2.7,34,0.00,,FEW055,0.00,VWS V14.01,2013-08-05 22:27:00,
2013-08-05 18:33:00,65.1,36.1,30.10,NNW,335,2.7,2.7,34,0.00,,FEW055,0.00,VWS V14.01,2013-08-05 22:33:00,
2013-08-05 18:38:00,64.9,35.9,30.10,NNW,343,0.0,2.7,34,0.00,,FEW055,0.00,VWS V14.01,2013-08-05 22:38:00,
2013-08-05 18:43:00,64.2,35.3,30.10,NNW,341,0.0,0.0,34,0.00,,SCT055,0.00,VWS V14.01,2013-08-05 22:43:00,
2013-08-05 18:48:00,64.2,35.3,30.10,NNW,341,0.0,0.0,34,0.00,,SCT055,0.00,VWS V14.01,2013-08-05 22:48:00,
2013-08-05 18:53:00,63.7,35.5,30.10,NNW,341,0.0,0.0,35,0.00,,SCT055,0.00,VWS V14.01,2013-08-05 22:53:00,
2013-08-05 18:58:00,63.3,35.9,30.10,NNW,341,0.0,0.0,36,0.00,,SCT055,0.00,VWS V14.01,2013-08-05 22:58:00,
2013-08-05 19:03:00,62.6,36.0,30.10,NNW,341,0.0,0.0,37,0.00,,SCT055,0.00,VWS V14.01,2013-08-05 23:03:00,
2013-08-05 19:08:00,62.6,36.0,30.10,NNW,328,0.0,0.0,37,0.00,,SCT055,0.00,VWS V14.01,2013-08-05 23:08:00,
2013-08-05 19:13:00,61.9,36.7,30.10,NNW,328,0.0,0.0,39,0.00,,SCT055,0.00,VWS V14.01,2013-08-05 23:13:00,
2013-08-05 19:18:00,60.8,37.0,30.10,NNW,328,0.0,0.0,41,0.00,,SCT055,0.00,VWS V14.01,2013-08-05 23:18:00,
2013-08-05 19:23:00,60.8,37.0,30.10,NNW,328,0.0,0.0,41,0.00,,SCT055,0.00,VWS V14.01,2013-08-05 23:23:00,
2013-08-05 19:28:00,59.7,38.4,30.10,NNW,328,0.0,0.0,45,0.00,,SCT055,0.00,VWS V14.01,2013-08-05 23:28:00,
2013-08-05 19:33:00,59.7,38.4,30.10,NNW,328,0.0,0.0,45,0.00,,SCT055,0.00,VWS V14.01,2013-08-05 23:33:00,
2013-08-05 19:38:00,58.6,39.0,30.10,NNW,328,0.0,0.0,48,0.00,,SCT055,0.00,VWS V14.01,2013-08-05 23:38:00,
2013-08-05 19:43:00,58.3,39.2,30.10,NNW,328,0.0,0.0,49,0.00,,CLR,0.00,VWS V14.01,2013-08-05 23:43:00,
2013-08-05 19:49:00,58.1,39.6,30.10,NNW,328,0.0,0.0,50,0.00,,CLR,0.00,VWS V14.01,2013-08-05 23:49:00,
2013-08-05 19:54:00,57.7,39.8,30.10,NNW,328,0.0,0.0,51,0.00,,CLR,0.00,VWS V14.01,2013-08-05 23:54:00,
2013-08-05 19:59:00,57.7,39.8,30.10,NNW,328,0.0,0.0,51,0.00,,CLR,0.00,VWS V14.01,2013-08-05 23:59:00,
2013-08-05 20:04:00,57.0,39.6,30.10,NNW,328,0.0,0.0,52,0.00,,CLR,0.00,VWS V14.01,2013-08-06 00:04:00,
2013-08-05 20:09:00,56.8,39.4,30.10,NNW,328,0.0,0.0,52,0.00,,CLR,0.00,VWS V14.01,2013-08-06 00:09:00,
2013-08-05 20:14:00,56.7,40.2,30.10,NNW,328,0.0,0.0,54,0.00,,CLR,0.00,VWS V14.01,2013-08-06 00:14:00,
2013-08-05 20:19:00,56.1,39.7,30.10,NNW,328,0.0,0.0,54,0.00,,CLR,0.00,VWS V14.01,2013-08-06 00:19:00,
2013-08-05 20:24:00,56.1,39.7,30.10,NNW,328,0.0,0.0,54,0.00,,CLR,0.00,VWS V14.01,2013-08-06 00:24:00,
2013-08-05 20:29:00,55.4,39.5,30.10,NNW,328,0.0,0.0,55,0.00,,CLR,0.00,VWS V14.01,2013-08-06 00:29:00,
2013-08-05 20:34:00,55.4,39.5,30.10,NNW,328,0.0,0.0,55,0.00,,CLR,0.00,VWS V14.01,2013-08-06 00:34:00,
2013-08-05 20:39:00,54.9,40.4,30.10,NNW,329,0.0,0.0,58,0.00,,CLR,0.00,VWS V14.01,2013-08-06 00:39:00,
2013-08-05 20:44:00,54.1,40.6,30.13,NNW,329,0.0,0.0,60,0.00,,CLR,0.00,VWS V14.01,2013-08-06 00:44:00,
2013-08-05 20:49:00,54.0,40.0,30.13,NNW,329,0.0,0.0,59,0.00,,CLR,0.00,VWS V14.01,2013-08-06 00:49:00,
2013-08-05 20:54:00,53.4,40.7,30.13,NNW,328,0.0,0.0,62,0.00,,CLR,0.00,VWS V14.01,2013-08-06 00:54:00,
2013-08-05 21:00:00,53.4,40.7,30.13,NNW,328,0.0,0.0,62,0.00,,CLR,0.00,VWS V14.01,2013-08-06 01:00:00,
2013-08-05 21:05:00,52.7,40.5,30.13,NNW,328,0.0,0.0,63,0.00,,CLR,0.00,VWS V14.01,2013-08-06 01:05:00,
2013-08-05 21:10:00,52.3,40.9,30.13,NNW,328,0.0,0.0,65,0.00,,CLR,0.00,VWS V14.01,2013-08-06 01:10:00,
2013-08-05 21:15:00,52.2,41.2,30.13,NNW,328,0.0,0.0,66,0.00,,CLR,0.00,VWS V14.01,2013-08-06 01:15:00,
2013-08-05 21:20:00,52.0,41.0,30.13,NNW,328,0.0,0.0,66,0.00,,CLR,0.00,VWS V14.01,2013-08-06 01:20:00,
2013-08-05 21:25:00,52.0,41.0,30.13,NNW,329,0.0,0.0,66,0.00,,CLR,0.00,VWS V14.01,2013-08-06 01:25:00,
2013-08-05 21:30:00,51.4,41.2,30.13,NNW,329,0.0,0.0,68,0.00,,CLR,0.00,VWS V14.01,2013-08-06 01:30:00,
2013-08-05 21:35:00,51.4,41.2,30.13,NNW,328,0.0,0.0,68,0.00,,CLR,0.00,VWS V14.01,2013-08-06 01:35:00,
2013-08-05 21:40:00,50.9,40.7,30.13,NNW,328,0.0,0.0,68,0.00,,CLR,0.00,VWS V14.01,2013-08-06 01:40:00,
2013-08-05 21:45:00,50.5,40.8,30.13,NNW,328,0.0,0.0,69,0.00,,CLR,0.00,VWS V14.01,2013-08-06 01:45:00,
2013-08-05 21:51:00,50.5,40.8,30.13,NNW,328,0.0,0.0,69,0.00,,CLR,0.00,VWS V14.01,2013-08-06 01:51:00,
2013-08-05 21:56:00,50.2,40.8,30.13,NNW,328,0.0,0.0,70,0.00,,CLR,0.00,VWS V14.01,2013-08-06 01:56:00,
2013-08-05 22:02:00,50.0,41.0,30.13,NNW,328,0.0,0.0,71,0.00,,CLR,0.00,VWS V14.01,2013-08-06 02:02:00,
2013-08-05 22:07:00,50.0,41.0,30.13,NNW,328,0.0,0.0,71,0.00,,CLR,0.00,VWS V14.01,2013-08-06 02:07:00,
2013-08-05 22:12:00,49.6,41.0,30.13,NNW,328,0.0,0.0,72,0.00,,CLR,0.00,VWS V14.01,2013-08-06 02:12:00,
2013-08-05 22:17:00,49.6,41.0,30.13,NNW,328,0.0,0.0,72,0.00,,CLR,0.00,VWS V14.01,2013-08-06 02:17:00,
2013-08-05 22:22:00,49.3,41.0,30.13,NNW,329,0.0,0.0,73,0.00,,CLR,0.00,VWS V14.01,2013-08-06 02:22:00,
2013-08-05 22:27:00,49.1,41.2,30.13,NNW,329,0.0,0.0,74,0.00,,CLR,0.00,VWS V14.01,2013-08-06 02:27:00,
2013-08-05 22:32:00,49.1,41.2,30.13,NNW,329,0.0,0.0,74,0.00,,CLR,0.00,VWS V14.01,2013-08-06 02:32:00,
2013-08-05 22:37:00,48.7,40.8,30.13,NNW,328,0.0,0.0,74,0.00,,CLR,0.00,VWS V14.01,2013-08-06 02:37:00,
2013-08-05 22:42:00,48.7,41.2,30.13,NNW,328,0.0,0.0,75,0.00,,CLR,0.00,VWS V14.01,2013-08-06 02:42:00,
2013-08-05 22:47:00,48.6,41.0,30.13,NNW,328,0.0,0.0,75,0.00,,CLR,0.00,VWS V14.01,2013-08-06 02:47:00,
2013-08-05 22:52:00,48.4,40.8,30.13,NNW,328,0.0,0.0,75,0.00,,CLR,0.00,VWS V14.01,2013-08-06 02:52:00,
2013-08-05 22:57:00,48.4,40.8,30.13,NNW,328,0.0,0.0,75,0.00,,CLR,0.00,VWS V14.01,2013-08-06 02:57:00,
2013-08-05 23:02:00,48.0,40.8,30.13,NNW,328,0.0,0.0,76,0.00,,CLR,0.00,VWS V14.01,2013-08-06 03:02:00,
2013-08-05 23:08:00,48.0,40.8,30.13,NNW,328,0.0,0.0,76,0.00,,CLR,0.00,VWS V14.01,2013-08-06 03:08:00,
2013-08-05 23:13:00,47.8,40.7,30.13,NNW,328,0.0,0.0,76,0.00,,CLR,0.00,VWS V14.01,2013-08-06 03:13:00,
2013-08-05 23:18:00,47.8,40.7,30.13,NNW,328,0.0,0.0,76,0.00,,CLR,0.00,VWS V14.01,2013-08-06 03:18:00,
2013-08-05 23:23:00,47.7,40.8,30.13,NNW,328,0.0,0.0,77,0.00,,CLR,0.00,VWS V14.01,2013-08-06 03:23:00,
2013-08-05 23:28:00,47.7,40.8,30.13,NNW,328,0.0,0.0,77,0.00,,CLR,0.00,VWS V14.01,2013-08-06 03:28:00,
2013-08-05 23:33:00,47.7,40.8,30.13,NNW,328,0.0,0.0,77,0.00,,CLR,0.00,VWS V14.01,2013-08-06 03:33:00,
2013-08-05 23:38:00,47.3,40.8,30.13,NNW,328,0.0,0.0,78,0.00,,CLR,0.00,VWS V14.01,2013-08-06 03:38:00,
2013-08-05 23:43:00,47.1,40.6,30.13,NNW,328,0.0,0.0,78,0.00,,CLR,0.00,VWS V14.01,2013-08-06 03:43:00,
2013-08-05 23:49:00,46.9,40.8,30.13,NNW,328,0.0,0.0,79,0.00,,CLR,0.00,VWS V14.01,2013-08-06 03:49:00,
2013-08-05 23:54:00,46.9,40.8,30.13,NNW,329,0.0,0.0,79,0.00,,CLR,0.00,VWS V14.01,2013-08-06 03:54:00,
2013-08-05 23:59:00,46.8,40.9,30.13,NNW,329,0.0,0.0,80,0.00,,CLR,0.00,VWS V14.01,2013-08-06 03:59:00,